Time;durP1;ratioP1;P1;durP2;ratioP2;P2;SDS_P1;SDS_P2;PMS_P1;PMS_P2;Temp;Humidity;BMP_temperature;BMP_pressure;BME280_temperature;BME280_humidity;BME280_pressure;Samples;Min_cycle;Max_cycle;Signal;HPM_P1;HPM_P2
2022/09/24 00:01:48;;;;;;;50.00;38.55;;;13.10;99.90;;;;;;4998684;28;89629;-33
2022/09/24 00:04:14;;;;;;;48.38;40.28;;;13.10;99.90;;;;;;4999688;28;89969;-33
2022/09/24 00:06:47;;;;;;;51.33;42.40;;;13.10;99.90;;;;;;4998388;28;90294;-31
2022/09/24 00:09:17;;;;;;;44.10;36.83;;;13.10;99.90;;;;;;4998563;28;89361;-30
2022/09/24 00:11:44;;;;;;;43.05;37.60;;;13.10;99.90;;;;;;4998829;28;89941;-32
2022/09/24 00:14:10;;;;;;;42.67;34.08;;;13.10;99.90;;;;;;4997644;28;88673;-32
2022/09/24 00:16:37;;;;;;;43.13;37.78;;;13.10;99.90;;;;;;4997927;28;90233;-30
2022/09/24 00:19:04;;;;;;;45.03;40.10;;;13.10;99.90;;;;;;4998770;28;89689;-34
2022/09/24 00:21:31;;;;;;;40.83;36.22;;;13.10;99.90;;;;;;4998354;28;89928;-30
2022/09/24 00:24:00;;;;;;;47.35;40.47;;;13.00;99.90;;;;;;4998685;28;89786;-30
2022/09/24 00:29:14;;;;;;;43.15;36.85;;;13.10;99.90;;;;;;4975371;28;89810;-31
2022/09/24 00:31:40;;;;;;;50.10;40.10;;;13.10;99.90;;;;;;4998592;28;89995;-31
2022/09/24 00:34:06;;;;;;;45.67;40.75;;;13.10;99.90;;;;;;4997577;28;90387;-33
2022/09/24 00:36:31;;;;;;;47.20;38.17;;;13.10;99.90;;;;;;4998753;28;90115;-31
2022/09/24 00:38:58;;;;;;;46.72;39.78;;;13.10;99.90;;;;;;4998941;28;89653;-30
2022/09/24 00:41:28;;;;;;;46.88;40.25;;;13.10;99.90;;;;;;4997530;28;89545;-30
2022/09/24 00:43:54;;;;;;;48.85;42.78;;;13.10;99.90;;;;;;5032183;22;88522;-33
2022/09/24 00:46:38;;;;;;;40.80;35.67;;;13.10;99.90;;;;;;4977191;28;91674;-31
2022/09/24 00:49:11;;;;;;;50.40;44.97;;;13.10;99.90;;;;;;4978561;28;88949;-32
2022/09/24 00:51:40;;;;;;;49.00;40.28;;;13.10;99.90;;;;;;4978980;28;89878;-31
2022/09/24 00:54:10;;;;;;;48.03;42.33;;;13.10;99.90;;;;;;4979265;28;90004;-31
2022/09/24 00:56:38;;;;;;;52.42;40.08;;;13.10;99.90;;;;;;4978082;28;90524;-31
2022/09/24 00:59:05;;;;;;;;;;;13.10;99.90;;;;;;4978798;28;91273;-30
2022/09/24 01:01:31;;;;;;;51.03;42.30;;;13.10;99.90;;;;;;4979624;28;90122;-30
2022/09/24 01:03:57;;;;;;;49.75;37.40;;;13.10;99.90;;;;;;4978922;28;89248;-34
2022/09/24 01:06:24;;;;;;;45.90;40.95;;;13.10;99.90;;;;;;4978301;28;89657;-34
2022/09/24 01:08:50;;;;;;;49.40;40.50;;;13.10;99.90;;;;;;4978101;28;89672;-31
2022/09/24 01:11:28;;;;;;;50.08;40.72;;;13.20;99.90;;;;;;4978198;28;89621;-34
2022/09/24 01:14:39;;;;;;;48.38;40.30;;;13.10;99.90;;;;;;4978374;28;88310;-32
2022/09/24 01:17:08;;;;;;;55.33;45.00;;;13.20;99.90;;;;;;4923197;28;89907;-33
2022/09/24 01:19:50;;;;;;;;;;;13.10;99.90;;;;;;4978140;28;89913;-31
2022/09/24 01:22:47;;;;;;;48.08;42.30;;;13.10;99.90;;;;;;4979427;28;90107;-32
2022/09/24 01:25:15;;;;;;;55.78;43.85;;;13.10;99.90;;;;;;4979131;28;90433;-32
2022/09/24 01:28:12;;;;;;;63.45;46.72;;;13.10;99.90;;;;;;4981669;28;90358;-30
2022/09/24 01:30:40;;;;;;;50.97;42.33;;;13.10;99.90;;;;;;4981562;28;91430;-31
2022/09/24 01:33:12;;;;;;;;;;;13.10;99.90;;;;;;4981441;28;88878;-34
2022/09/24 01:35:43;;;;;;;52.55;42.00;;;13.10;99.90;;;;;;4983164;28;88202;-33
2022/09/24 01:38:23;;;;;;;49.95;42.47;;;13.10;99.90;;;;;;4980840;28;90062;-32
2022/09/24 01:40:51;;;;;;;53.13;39.92;;;13.10;99.90;;;;;;4981448;28;90930;-31
2022/09/24 01:43:21;;;;;;;52.47;40.83;;;13.10;99.90;;;;;;4981188;28;89621;-31
2022/09/24 01:45:47;;;;;;;49.80;40.92;;;13.10;99.90;;;;;;4979695;28;88073;-34
2022/09/24 01:48:13;;;;;;;45.42;38.95;;;13.10;99.90;;;;;;4967274;28;90313;-34
2022/09/24 01:50:57;;;;;;;51.75;42.15;;;13.10;99.90;;;;;;4981152;28;90606;-32
2022/09/24 01:53:30;;;;;;;53.08;41.47;;;13.20;99.90;;;;;;4980697;28;91143;-32
2022/09/24 01:56:14;;;;;;;53.20;41.97;;;13.10;99.90;;;;;;4981477;28;88224;-28
2022/09/24 01:58:50;;;;;;;65.88;43.40;;;13.10;99.90;;;;;;4980819;28;89652;-31
2022/09/24 02:01:26;;;;;;;51.55;41.92;;;13.20;99.90;;;;;;4980732;28;90137;-30
2022/09/24 02:03:59;;;;;;;53.92;43.85;;;13.10;99.90;;;;;;4979760;28;89455;-30
2022/09/24 02:06:37;;;;;;;48.85;40.60;;;13.20;99.90;;;;;;4981318;28;88975;-31
2022/09/24 02:09:02;;;;;;;46.42;40.05;;;13.20;99.90;;;;;;4980966;28;91022;-33
2022/09/24 02:11:31;;;;;;;52.80;43.42;;;13.20;99.90;;;;;;4980049;28;89505;-33
2022/09/24 02:14:05;;;;;;;57.95;43.47;;;13.20;99.90;;;;;;4980393;28;90132;-30
2022/09/24 02:16:44;;;;;;;49.55;40.22;;;13.20;99.90;;;;;;4980518;28;88957;-28
2022/09/24 02:19:13;;;;;;;50.05;41.63;;;13.20;99.90;;;;;;4981568;28;90016;-30
2022/09/24 02:21:40;;;;;;;54.78;42.20;;;13.20;99.90;;;;;;4981011;28;89925;-33
2022/09/24 02:24:12;;;;;;;61.60;46.97;;;13.20;99.90;;;;;;4974643;28;89561;-31
2022/09/24 02:26:38;;;;;;;53.75;42.72;;;13.20;99.90;;;;;;4979528;28;88302;-30
2022/09/24 02:29:04;;;;;;;54.20;44.38;;;13.10;99.90;;;;;;4980684;28;90123;-29
2022/09/24 02:31:38;;;;;;;55.08;45.00;;;13.20;99.90;;;;;;4980941;28;89429;-33
2022/09/24 02:34:22;;;;;;;54.65;42.42;;;13.20;99.90;;;;;;4979772;28;87870;-32
2022/09/24 02:36:54;;;;;;;54.13;44.60;;;13.10;99.90;;;;;;4980273;28;88633;-31
2022/09/24 02:39:19;;;;;;;49.60;40.17;;;13.10;99.90;;;;;;4979689;28;90376;-31
2022/09/24 02:41:47;;;;;;;49.15;39.20;;;13.10;99.90;;;;;;4979700;28;91031;-31
2022/09/24 02:44:17;;;;;;;51.35;41.80;;;13.10;99.90;;;;;;4979591;28;90063;-30
2022/09/24 02:46:44;;;;;;;52.42;42.25;;;13.10;99.90;;;;;;4980405;28;88656;-31
2022/09/24 02:49:11;;;;;;;53.83;39.22;;;13.10;99.90;;;;;;4979893;28;90315;-31
2022/09/24 02:51:37;;;;;;;53.65;42.35;;;13.10;99.90;;;;;;4979187;28;90107;-33
2022/09/24 02:54:03;;;;;;;56.50;42.50;;;13.10;99.90;;;;;;4980072;28;89677;-32
2022/09/24 02:56:29;;;;;;;53.38;42.40;;;13.10;99.90;;;;;;4979697;28;88339;-31
2022/09/24 02:58:54;;;;;;;48.45;41.33;;;13.10;99.90;;;;;;4980515;28;90222;-30
2022/09/24 03:01:21;;;;;;;45.55;40.28;;;13.10;99.90;;;;;;4968203;28;89905;-31
2022/09/24 03:03:47;;;;;;;58.08;43.25;;;13.10;99.90;;;;;;4978084;28;90296;-34
2022/09/24 03:06:13;;;;;;;50.85;42.35;;;13.10;99.90;;;;;;4979790;28;90342;-32
2022/09/24 03:08:42;;;;;;;53.90;38.45;;;13.10;99.90;;;;;;4980118;28;90246;-29
2022/09/24 03:11:09;;;;;;;55.95;42.92;;;13.10;99.90;;;;;;4979768;28;89749;-34
2022/09/24 03:13:36;;;;;;;46.77;38.00;;;13.10;99.90;;;;;;4979617;28;89517;-33
2022/09/24 03:16:02;;;;;;;51.40;39.40;;;13.10;99.90;;;;;;4980166;28;89312;-31
2022/09/24 03:18:28;;;;;;;52.28;41.60;;;13.10;99.90;;;;;;4979272;28;90255;-31
2022/09/24 03:20:59;;;;;;;57.65;42.72;;;13.20;99.90;;;;;;4980322;28;88896;-31
2022/09/24 03:23:25;;;;;;;51.00;40.63;;;13.10;99.90;;;;;;4979725;28;89885;-31
2022/09/24 03:25:50;;;;;;;56.35;42.33;;;13.10;99.90;;;;;;4980067;28;89706;-30
2022/09/24 03:28:16;;;;;;;52.05;40.90;;;13.10;99.90;;;;;;4979323;28;90336;-34
2022/09/24 03:31:01;;;;;;;53.60;43.97;;;13.10;99.90;;;;;;4979430;28;90752;-29
2022/09/24 03:33:32;;;;;;;55.70;43.03;;;13.10;99.90;;;;;;4978966;28;90535;-33
2022/09/24 03:36:07;;;;;;;57.28;45.25;;;13.10;99.90;;;;;;4979216;28;88882;-33
2022/09/24 03:38:34;;;;;;;54.85;40.95;;;13.10;99.90;;;;;;4979440;28;90295;-33
2022/09/24 03:41:01;;;;;;;53.63;42.00;;;13.10;99.90;;;;;;4979528;28;90197;-31
2022/09/24 03:43:27;;;;;;;45.55;39.40;;;13.00;99.90;;;;;;4979932;28;89564;-32
2022/09/24 03:45:54;;;;;;;57.20;44.13;;;13.10;99.90;;;;;;4979392;28;89518;-31
2022/09/24 03:48:21;;;;;;;54.63;40.30;;;13.10;99.90;;;;;;4978454;28;89066;-31
2022/09/24 03:50:47;;;;;;;53.78;43.60;;;13.10;99.90;;;;;;4979374;28;89738;-31
2022/09/24 03:53:13;;;;;;;49.67;43.60;;;13.10;99.90;;;;;;4978679;28;89930;-32
2022/09/24 03:55:58;;;;;;;55.33;43.65;;;13.10;99.90;;;;;;4979506;28;88134;-32
2022/09/24 03:58:24;;;;;;;53.45;43.50;;;13.10;99.90;;;;;;4978616;28;89838;-33
2022/09/24 04:00:53;;;;;;;56.92;41.00;;;13.10;99.90;;;;;;4979379;28;90028;-33
2022/09/24 04:03:20;;;;;;;52.88;40.63;;;13.10;99.90;;;;;;4978688;28;90048;-33
2022/09/24 04:05:46;;;;;;;58.58;42.47;;;13.00;99.90;;;;;;4979713;28;89243;-31
2022/09/24 04:08:12;;;;;;;48.67;39.20;;;13.00;99.90;;;;;;4978818;28;90199;-33
2022/09/24 04:10:37;;;;;;;52.33;43.25;;;13.00;99.90;;;;;;4979388;28;89507;-31
2022/09/24 04:13:03;;;;;;;61.08;44.10;;;13.00;99.90;;;;;;4979230;28;89397;-32
2022/09/24 04:15:29;;;;;;;53.42;42.08;;;13.00;99.90;;;;;;4978722;28;89668;-31
2022/09/24 04:17:58;;;;;;;60.65;45.03;;;13.00;99.90;;;;;;4979415;28;88961;-32
2022/09/24 04:20:28;;;;;;;53.83;42.10;;;13.00;99.90;;;;;;4978797;28;90697;-31
2022/09/24 04:22:56;;;;;;;54.33;42.30;;;13.00;99.90;;;;;;4979238;28;90634;-33
2022/09/24 04:25:23;;;;;;;55.70;42.80;;;13.00;99.90;;;;;;4978132;28;89233;-33
2022/09/24 04:27:57;;;;;;;61.78;45.17;;;13.00;99.90;;;;;;4978429;28;90067;-31
2022/09/24 04:30:24;;;;;;;54.35;42.13;;;13.00;99.90;;;;;;4979091;28;89885;-30
2022/09/24 04:32:50;;;;;;;58.13;45.90;;;13.00;99.90;;;;;;4978761;28;88499;-30
2022/09/24 04:35:21;;;;;;;57.05;43.22;;;13.00;99.90;;;;;;4978442;28;89208;-34
2022/09/24 04:37:47;;;;;;;51.40;40.42;;;13.00;99.90;;;;;;4978297;28;90293;-33
2022/09/24 04:40:14;;;;;;;60.05;44.28;;;13.00;99.90;;;;;;4978673;28;89226;-31
2022/09/24 04:42:43;;;;;;;55.92;43.20;;;13.00;99.90;;;;;;4978568;28;89940;-32
2022/09/24 04:45:10;;;;;;;54.67;42.72;;;13.00;99.90;;;;;;4977914;28;90162;-33
2022/09/24 04:47:39;;;;;;;58.78;41.38;;;13.00;99.90;;;;;;4977895;28;91059;-33
2022/09/24 04:50:06;;;;;;;57.53;41.92;;;13.00;99.90;;;;;;4977804;28;89690;-29
2022/09/24 04:52:32;;;;;;;54.17;44.35;;;13.00;99.90;;;;;;4978495;28;89797;-31
2022/09/24 04:54:58;;;;;;;59.88;42.38;;;13.00;99.90;;;;;;4978514;28;89957;-30
2022/09/24 04:57:24;;;;;;;56.28;44.72;;;13.00;99.90;;;;;;4978009;28;90948;-30
2022/09/24 04:59:50;;;;;;;60.13;47.83;;;13.00;99.90;;;;;;4979802;28;89765;-30
2022/09/24 05:02:16;;;;;;;58.17;45.97;;;13.00;99.90;;;;;;4981139;28;90123;-31
2022/09/24 05:04:45;;;;;;;52.45;40.58;;;13.00;99.90;;;;;;4981705;28;88470;-33
2022/09/24 05:07:11;;;;;;;59.17;42.88;;;13.00;99.90;;;;;;4982381;28;90381;-31
2022/09/24 05:09:36;;;;;;;53.17;42.50;;;13.00;99.90;;;;;;4981416;28;90800;-32
2022/09/24 05:12:03;;;;;;;54.03;42.53;;;13.00;99.90;;;;;;4981289;28;90798;-34
2022/09/24 05:14:29;;;;;;;54.50;44.92;;;13.00;99.90;;;;;;4982349;28;90166;-32
2022/09/24 05:16:55;;;;;;;58.15;42.75;;;13.00;99.90;;;;;;4981335;28;89335;-31
2022/09/24 05:19:20;;;;;;;59.42;44.40;;;13.00;99.90;;;;;;4981819;28;91026;-31
2022/09/24 05:21:46;;;;;;;55.22;43.80;;;13.00;99.90;;;;;;4981340;28;89810;-32
2022/09/24 05:24:12;;;;;;;57.80;43.42;;;13.00;99.90;;;;;;4981096;28;88341;-34
2022/09/24 05:29:22;;;;;;;57.97;45.38;;;13.00;99.90;;;;;;4980850;28;90055;-31
2022/09/24 05:31:48;;;;;;;64.63;45.10;;;13.00;99.90;;;;;;4981906;28;89448;-32
2022/09/24 05:34:14;;;;;;;54.63;39.60;;;13.00;99.90;;;;;;4980417;28;90542;-31
2022/09/24 05:36:42;;;;;;;53.78;42.80;;;13.00;99.90;;;;;;4981226;28;90586;-30
2022/09/24 05:39:08;;;;;;;54.22;41.95;;;13.00;99.90;;;;;;4981399;28;89369;-31
2022/09/24 05:41:34;;;;;;;57.50;45.15;;;13.00;99.90;;;;;;4980476;28;89594;-32
2022/09/24 05:44:00;;;;;;;59.55;48.40;;;13.00;99.90;;;;;;4981041;28;89443;-32
2022/09/24 05:46:26;;;;;;;55.33;44.22;;;13.00;99.90;;;;;;4967172;28;89836;-30
2022/09/24 05:48:52;;;;;;;56.78;41.70;;;13.00;99.90;;;;;;4980917;28;89694;-30
2022/09/24 05:51:17;;;;;;;50.25;41.72;;;13.10;99.90;;;;;;4981177;28;89772;-31
2022/09/24 05:53:43;;;;;;;49.88;39.28;;;13.10;99.90;;;;;;4980752;28;88815;-34
2022/09/24 05:56:09;;;;;;;53.58;39.85;;;13.10;99.90;;;;;;4980877;28;90798;-32
2022/09/24 05:58:35;;;;;;;49.85;40.45;;;13.10;99.90;;;;;;4980051;28;90294;-33
2022/09/24 06:01:01;;;;;;;52.03;41.35;;;13.10;99.90;;;;;;4980848;28;90420;-30
2022/09/24 06:03:28;;;;;;;55.75;44.05;;;13.10;99.90;;;;;;4980916;28;89378;-32
2022/09/24 06:05:55;;;;;;;57.10;42.63;;;13.10;99.90;;;;;;4980471;28;90326;-30
2022/09/24 06:08:21;;;;;;;52.80;40.00;;;13.10;99.90;;;;;;4980349;28;89214;-30
2022/09/24 06:10:47;;;;;;;49.88;40.35;;;13.10;99.90;;;;;;4980894;28;88975;-30
2022/09/24 06:13:17;;;;;;;53.17;41.13;;;13.10;99.90;;;;;;4979728;28;88708;-32
2022/09/24 06:15:43;;;;;;;48.95;39.20;;;13.20;99.90;;;;;;4980741;28;90454;-33
2022/09/24 06:18:10;;;;;;;44.85;36.08;;;13.20;99.90;;;;;;4980500;28;89740;-31
2022/09/24 06:20:36;;;;;;;45.45;36.85;;;13.20;99.90;;;;;;4980024;28;89395;-34
2022/09/24 06:23:02;;;;;;;44.72;34.95;;;13.20;99.90;;;;;;4979992;28;90430;-30
2022/09/24 06:25:29;;;;;;;46.65;34.40;;;13.20;99.90;;;;;;4979734;28;89843;-34
2022/09/24 06:28:00;;;;;;;51.08;37.97;;;13.20;99.90;;;;;;4980605;28;89288;-33
2022/09/24 06:30:37;;;;;;;54.45;39.83;;;13.20;99.90;;;;;;4979603;28;89619;-31
2022/09/24 06:33:09;;;;;;;48.17;34.20;;;13.20;99.90;;;;;;4981040;28;89477;-29
2022/09/24 06:35:35;;;;;;;51.45;36.40;;;13.20;99.90;;;;;;4980112;28;90872;-33
2022/09/24 06:38:03;;;;;;;55.83;37.45;;;13.20;99.90;;;;;;4980974;28;90441;-32
2022/09/24 06:40:29;;;;;;;44.08;34.97;;;13.30;99.90;;;;;;4980098;28;89643;-32
2022/09/24 06:42:54;;;;;;;47.97;35.70;;;13.30;99.90;;;;;;4980813;28;90002;-30
2022/09/24 06:45:21;;;;;;;51.25;35.65;;;13.30;99.90;;;;;;4980044;28;90086;-32
2022/09/24 06:47:58;;;;;;;51.70;35.97;;;13.30;99.90;;;;;;4979486;28;90863;-32
2022/09/24 06:50:26;;;;;;;50.88;38.47;;;13.30;99.90;;;;;;4979803;28;90899;-32
2022/09/24 06:52:52;;;;;;;47.58;35.85;;;13.30;99.90;;;;;;4980437;28;89445;-34
2022/09/24 06:55:18;;;;;;;45.28;33.28;;;13.30;99.90;;;;;;4979731;28;90757;-32
2022/09/24 06:57:44;;;;;;;59.30;38.08;;;13.30;99.90;;;;;;4979592;28;89626;-31
2022/09/24 07:00:12;;;;;;;50.97;36.13;;;13.30;99.90;;;;;;4980601;28;89775;-31
2022/09/24 07:02:37;;;;;;;46.83;32.13;;;13.30;99.90;;;;;;4980119;28;88545;-31
2022/09/24 07:05:04;;;;;;;53.00;35.78;;;13.30;99.90;;;;;;4979290;28;90096;-32
2022/09/24 07:07:31;;;;;;;49.95;35.20;;;13.30;99.90;;;;;;4979938;28;90099;-32
2022/09/24 07:09:58;;;;;;;53.23;37.43;;;13.30;99.90;;;;;;4980583;28;89487;-31
2022/09/24 07:12:24;;;;;;;45.33;33.55;;;13.30;99.90;;;;;;4979203;28;88858;-32
2022/09/24 07:14:50;;;;;;;42.70;33.75;;;13.30;99.90;;;;;;4979530;28;89731;-30
2022/09/24 07:17:15;;;;;;;48.70;35.85;;;13.30;99.90;;;;;;4979518;28;90123;-32
2022/09/24 07:19:41;;;;;;;48.40;33.45;;;13.30;99.90;;;;;;4979958;28;89700;-30
2022/09/24 07:22:07;;;;;;;50.55;35.10;;;13.30;99.90;;;;;;4980263;28;89097;-33
2022/09/24 07:24:33;;;;;;;51.78;35.42;;;13.30;99.90;;;;;;4979652;28;90199;-30
2022/09/24 07:26:59;;;;;;;41.55;32.83;;;13.30;99.90;;;;;;4979712;28;88937;-30
2022/09/24 07:29:25;;;;;;;37.70;32.00;;;13.30;99.90;;;;;;4980700;28;89453;-32
2022/09/24 07:31:51;;;;;;;48.42;33.88;;;13.40;99.90;;;;;;4979621;28;88760;-33
2022/09/24 07:34:17;;;;;;;39.00;30.80;;;13.40;99.90;;;;;;4979378;28;90342;-30
2022/09/24 07:36:42;;;;;;;37.72;29.73;;;13.40;99.90;;;;;;4979173;28;91154;-33
2022/09/24 07:39:08;;;;;;;38.58;28.83;;;13.40;99.90;;;;;;4979331;28;90626;-31
2022/09/24 07:41:34;;;;;;;31.73;26.05;;;13.40;99.90;;;;;;4979222;28;89729;-33
2022/09/24 07:44:00;;;;;;;41.85;26.52;;;13.40;99.90;;;;;;4979000;28;90860;-34
2022/09/24 07:46:26;;;;;;;29.27;23.77;;;13.40;99.90;;;;;;4980195;28;90881;-31
2022/09/24 07:48:55;;;;;;;35.13;24.67;;;13.40;99.90;;;;;;4979224;28;89383;-32
2022/09/24 07:51:21;;;;;;;;;;;13.40;99.90;;;;;;4978887;28;89005;-31
2022/09/24 07:53:47;;;;;;;29.95;21.63;;;13.40;99.90;;;;;;4981755;28;90888;-32
2022/09/24 07:56:13;;;;;;;29.90;21.98;;;13.40;99.90;;;;;;4979273;28;88926;-31
2022/09/24 07:58:39;;;;;;;24.15;21.13;;;13.50;99.90;;;;;;4979429;28;89882;-35
2022/09/24 08:01:05;;;;;;;26.25;19.10;;;13.50;99.90;;;;;;4979435;28;90249;-29
2022/09/24 08:03:31;;;;;;;25.38;20.60;;;13.50;99.90;;;;;;4977744;28;90632;-31
2022/09/24 08:05:58;;;;;;;24.65;18.80;;;13.60;99.90;;;;;;4979346;28;89507;-30
2022/09/24 08:08:24;;;;;;;25.33;20.92;;;13.60;99.90;;;;;;4978461;28;90006;-30
2022/09/24 08:10:50;;;;;;;29.88;20.23;;;13.60;99.90;;;;;;4978943;28;89136;-31
2022/09/24 08:13:16;;;;;;;28.70;16.88;;;13.70;99.90;;;;;;4978963;28;91123;-32
2022/09/24 08:15:42;;;;;;;28.67;17.20;;;13.70;99.90;;;;;;4978749;28;89731;-32
2022/09/24 08:18:08;;;;;;;21.75;17.42;;;13.70;99.90;;;;;;4978177;28;89735;-34
2022/09/24 08:20:36;;;;;;;26.65;19.63;;;13.70;99.90;;;;;;4978777;28;89204;-30
2022/09/24 08:23:03;;;;;;;18.87;16.87;;;13.70;99.90;;;;;;4978964;28;90118;-31
2022/09/24 08:25:30;;;;;;;21.30;17.57;;;13.70;99.90;;;;;;4968762;28;90763;-31
2022/09/24 08:28:00;;;;;;;30.40;20.90;;;13.70;99.90;;;;;;4956658;28;90946;-33
2022/09/24 08:30:25;;;;;;;22.33;16.70;;;13.80;99.90;;;;;;4957350;28;89186;-35
2022/09/24 08:32:51;;;;;;;19.88;16.92;;;13.80;99.90;;;;;;4960882;28;89857;-33
2022/09/24 08:35:17;;;;;;;17.08;15.23;;;13.80;99.90;;;;;;4975582;28;90393;-31
2022/09/24 08:37:43;;;;;;;23.30;17.83;;;13.80;99.90;;;;;;4976889;28;89828;-32
2022/09/24 08:40:20;;;;;;;20.02;17.45;;;13.80;99.90;;;;;;4975276;28;87649;-31
2022/09/24 08:42:54;;;;;;;21.92;18.05;;;13.90;99.90;;;;;;4976405;28;89230;-31
2022/09/24 08:48:10;;;;;;;17.73;15.75;;;13.90;99.90;;;;;;4976420;28;90245;-32
2022/09/24 08:50:40;;;;;;;21.75;18.20;;;13.90;99.90;;;;;;4976116;28;88360;-32
2022/09/24 08:53:39;;;;;;;18.63;16.58;;;13.90;99.90;;;;;;4976457;28;90294;-30
2022/09/24 08:56:07;;;;;;;17.75;15.82;;;14.00;99.90;;;;;;4968681;28;89641;-31
2022/09/24 08:58:48;;;;;;;18.70;15.23;;;14.00;99.90;;;;;;4975949;28;88511;-33
2022/09/24 09:01:24;;;;;;;20.67;14.68;;;14.00;99.90;;;;;;4977281;28;89445;-30
2022/09/24 09:04:11;;;;;;;16.77;13.70;;;14.00;99.90;;;;;;4975870;28;88932;-32
2022/09/24 09:06:48;;;;;;;19.30;14.80;;;14.00;99.90;;;;;;4957482;28;89500;-31
2022/09/24 09:09:29;;;;;;;21.57;13.97;;;14.00;99.90;;;;;;4956445;28;90184;-34
2022/09/24 09:12:02;;;;;;;16.60;12.57;;;14.00;99.90;;;;;;4956310;28;88780;-32
2022/09/24 09:14:30;;;;;;;14.65;11.30;;;14.10;99.90;;;;;;4956293;28;89620;-30
2022/09/24 09:17:00;;;;;;;;;;;14.10;99.90;;;;;;4957078;28;90793;-32
2022/09/24 09:19:32;;;;;;;9.85;8.07;;;14.10;99.90;;;;;;4960126;28;89249;-34
2022/09/24 09:22:15;;;;;;;15.07;11.15;;;14.20;99.90;;;;;;4960253;28;89261;-30
2022/09/24 09:24:49;;;;;;;12.20;10.93;;;14.20;99.90;;;;;;4958218;28;90085;-34
2022/09/24 09:27:17;;;;;;;13.85;6.68;;;14.30;99.90;;;;;;4958201;28;90368;-32
2022/09/24 09:30:20;;;;;;;9.48;5.78;;;14.40;99.90;;;;;;4958312;28;89647;-33
2022/09/24 09:33:19;;;;;;;9.73;3.83;;;14.50;99.90;;;;;;4950914;28;89033;-32
2022/09/24 09:36:17;;;;;;;7.88;2.88;;;14.50;99.90;;;;;;4978240;28;90717;-32
2022/09/24 09:39:06;;;;;;;10.68;3.65;;;14.60;99.90;;;;;;4977391;28;90721;-33
2022/09/24 09:41:48;;;;;;;9.90;3.00;;;14.70;99.90;;;;;;4977359;28;90122;-31
2022/09/24 09:44:21;;;;;;;10.02;3.63;;;14.80;99.90;;;;;;4975633;28;90823;-33
2022/09/24 09:47:03;;;;;;;12.88;4.07;;;14.90;99.90;;;;;;4981228;28;90260;-32
2022/09/24 09:49:35;;;;;;;16.88;4.85;;;14.90;99.90;;;;;;4981371;28;90325;-31
2022/09/24 09:52:08;;;;;;;8.93;4.35;;;15.00;99.90;;;;;;4981768;28;90011;-30
2022/09/24 09:54:38;;;;;;;8.10;4.18;;;15.00;99.90;;;;;;4982009;28;90204;-31
2022/09/24 09:57:05;;;;;;;6.97;3.63;;;15.00;99.90;;;;;;4982521;28;90981;-30
2022/09/24 09:59:34;;;;;;;9.30;3.20;;;15.00;99.90;;;;;;4981885;28;90114;-31
2022/09/24 10:02:00;;;;;;;10.00;3.17;;;15.10;99.90;;;;;;4981717;28;90484;-31
2022/09/24 10:04:31;;;;;;;11.90;4.55;;;15.10;99.90;;;;;;4980907;28;88415;-30
2022/09/24 10:07:05;;;;;;;21.98;4.72;;;15.10;99.90;;;;;;4981137;28;90641;-32
2022/09/24 10:09:31;;;;;;;8.18;3.75;;;15.10;99.90;;;;;;4980673;28;90568;-31
2022/09/24 10:12:10;;;;;;;18.13;4.18;;;15.10;99.90;;;;;;4981489;28;90663;-32
2022/09/24 10:14:36;;;;;;;8.90;3.67;;;15.20;99.90;;;;;;4981523;28;89642;-33
2022/09/24 10:17:04;;;;;;;15.35;4.20;;;15.10;99.90;;;;;;4981489;28;89190;-31
2022/09/24 10:19:30;;;;;;;;;;;15.10;99.90;;;;;;4981515;28;89779;-32
2022/09/24 10:21:57;;;;;;;9.48;3.13;;;15.10;99.90;;;;;;4982325;28;89417;-32
2022/09/24 10:24:24;;;;;;;4.90;3.05;;;15.10;99.90;;;;;;4981302;28;88821;-31
2022/09/24 10:26:50;;;;;;;16.05;4.68;;;15.10;99.90;;;;;;4981846;28;90755;-34
2022/09/24 10:32:12;;;;;;;9.82;4.30;;;15.00;99.90;;;;;;4980513;28;89424;-33
2022/09/24 10:34:37;;;;;;;7.32;3.50;;;14.90;99.90;;;;;;4980703;28;88767;-35
2022/09/24 10:37:13;;;;;;;3.22;2.75;;;14.80;99.90;;;;;;4981022;28;89401;-34
2022/09/24 10:39:39;;;;;;;4.95;3.50;;;14.80;99.90;;;;;;4980776;28;89474;-32
2022/09/24 10:42:20;;;;;;;4.95;2.97;;;14.80;99.90;;;;;;4981191;28;90088;-33
2022/09/24 10:44:47;;;;;;;12.82;3.63;;;14.70;99.90;;;;;;4980543;28;89802;-32
2022/09/24 10:47:35;;;;;;;5.88;2.85;;;14.70;99.90;;;;;;4981512;28;90783;-32
2022/09/24 10:50:26;;;;;;;9.43;3.53;;;14.70;99.90;;;;;;4981077;28;89799;-32
2022/09/24 10:52:56;;;;;;;10.02;4.15;;;14.60;99.90;;;;;;4980702;28;89417;-33
2022/09/24 10:55:47;;;;;;;5.55;3.17;;;14.60;99.90;;;;;;4981044;28;88458;-33
2022/09/24 10:58:21;;;;;;;4.53;2.50;;;14.50;99.90;;;;;;4979798;28;90479;-31
2022/09/24 11:01:02;;;;;;;5.90;2.90;;;14.50;99.90;;;;;;4980678;28;90342;-35
2022/09/24 11:03:34;;;;;;;7.03;2.70;;;14.50;99.90;;;;;;4980289;28;91298;-32
2022/09/24 11:06:37;;;;;;;7.70;3.10;;;14.60;99.90;;;;;;4980415;28;89805;-31
2022/09/24 11:09:06;;;;;;;7.68;2.92;;;14.50;99.90;;;;;;4980168;28;90273;-33
2022/09/24 11:11:40;;;;;;;3.45;2.63;;;14.60;99.90;;;;;;4979021;28;90561;-31
2022/09/24 11:14:09;;;;;;;5.30;3.53;;;14.50;99.90;;;;;;4980632;28;89718;-30
2022/09/24 11:16:58;;;;;;;6.18;3.25;;;14.60;99.90;;;;;;4980535;28;89584;-31
2022/09/24 11:19:37;;;;;;;7.85;2.72;;;14.60;99.90;;;;;;4979645;28;89834;-32
2022/09/24 11:22:02;;;;;;;6.88;3.22;;;14.60;99.90;;;;;;4979662;28;88825;-31
2022/09/24 11:24:56;;;;;;;10.13;3.10;;;14.60;99.90;;;;;;4980470;28;89492;-31
2022/09/24 11:27:30;;;;;;;12.63;3.25;;;14.60;99.90;;;;;;4979784;28;89020;-33
2022/09/24 11:30:23;;;;;;;8.57;3.40;;;14.60;99.90;;;;;;4980721;28;90434;-33
2022/09/24 11:32:58;;;;;;;6.22;3.38;;;14.70;99.90;;;;;;4979874;28;89863;-31
2022/09/24 11:35:29;;;;;;;5.50;2.65;;;14.70;99.90;;;;;;4980423;28;89992;-31
2022/09/24 11:38:32;;;;;;;8.02;2.83;;;14.80;99.90;;;;;;4980536;28;89441;-34
2022/09/24 11:40:57;;;;;;;5.97;2.63;;;14.90;99.90;;;;;;4980270;28;91547;-32
2022/09/24 11:43:32;;;;;;;5.78;2.65;;;14.90;99.90;;;;;;4979647;28;90075;-33
2022/09/24 11:46:21;;;;;;;8.23;2.25;;;14.90;99.90;;;;;;4980289;28;89093;-32
2022/09/24 11:48:50;;;;;;;7.30;2.65;;;15.00;99.90;;;;;;4980596;28;89603;-33
2022/09/24 11:51:25;;;;;;;3.78;2.03;;;14.90;99.90;;;;;;4979930;28;90003;-32
2022/09/24 11:54:06;;;;;;;6.10;2.58;;;15.00;99.90;;;;;;4979067;28;90137;-30
2022/09/24 11:56:38;;;;;;;5.72;1.98;;;15.00;99.90;;;;;;4979804;28;90642;-31
2022/09/24 11:59:22;;;;;;;10.18;2.17;;;15.10;99.90;;;;;;4980252;28;88575;-34
2022/09/24 12:02:11;;;;;;;7.25;2.55;;;15.10;99.90;;;;;;4979558;28;88928;-31
2022/09/24 12:04:54;;;;;;;6.88;2.05;;;15.20;99.90;;;;;;4970912;28;89447;-32
2022/09/24 12:07:50;;;;;;;4.63;1.70;;;15.10;99.90;;;;;;4980230;28;89949;-35
2022/09/24 12:10:28;;;;;;;9.68;2.15;;;15.10;99.90;;;;;;4956313;28;88713;-31
2022/09/24 12:13:18;;;;;;;10.27;2.22;;;15.10;99.90;;;;;;4979660;28;91062;-32
2022/09/24 12:16:09;;;;;;;8.38;2.88;;;15.20;99.90;;;;;;4979411;28;89872;-33
2022/09/24 12:18:51;;;;;;;2.53;1.92;;;15.30;99.90;;;;;;4979196;28;89742;-31
2022/09/24 12:21:22;;;;;;;5.18;1.85;;;15.40;99.90;;;;;;4978762;28;89494;-32
2022/09/24 12:23:50;;;;;;;9.95;2.35;;;15.50;99.90;;;;;;4979147;28;90283;-32
2022/09/24 12:26:18;;;;;;;6.50;1.50;;;15.50;99.90;;;;;;4978864;28;89550;-35
2022/09/24 12:35:01;;;;;;;3.63;1.58;;;15.60;99.90;;;;;;4979092;28;90621;-30
2022/09/24 12:37:37;;;;;;;6.15;2.65;;;15.70;99.90;;;;;;4978799;28;90559;-32
2022/09/24 12:40:13;;;;;;;3.97;1.73;;;15.60;99.90;;;;;;4979614;28;88357;-34
2022/09/24 12:42:44;;;;;;;8.25;1.75;;;15.60;99.90;;;;;;4979747;28;87657;-32
2022/09/24 12:45:16;;;;;;;5.18;3.05;;;15.70;99.90;;;;;;5023409;22;90871;-32
2022/09/24 12:47:48;;;;;;;3.95;2.25;;;15.70;99.90;;;;;;4998903;28;90594;-33
2022/09/24 12:50:23;;;;;;;6.20;2.45;;;15.70;99.90;;;;;;4998353;28;90179;-33
2022/09/24 12:52:49;;;;;;;8.38;2.67;;;15.60;99.90;;;;;;4999767;28;88379;-32
2022/09/24 12:55:21;;;;;;;9.15;2.47;;;15.50;99.90;;;;;;4999012;28;91357;-32
2022/09/24 12:57:59;;;;;;;2.45;1.42;;;15.50;99.90;;;;;;4998875;28;89237;-31
2022/09/24 13:00:35;;;;;;;3.03;1.52;;;15.50;99.90;;;;;;4998368;28;90236;-33
2022/09/24 13:03:02;;;;;;;5.25;1.80;;;15.50;99.90;;;;;;4998922;28;87864;-31
2022/09/24 13:05:44;;;;;;;7.05;1.90;;;15.50;99.90;;;;;;4999056;28;90287;-34
2022/09/24 13:08:16;;;;;;;5.15;1.92;;;15.40;99.90;;;;;;4998903;28;89846;-32
2022/09/24 13:10:57;;;;;;;1.55;1.45;;;15.30;99.90;;;;;;4998099;28;89808;-32